createdAt,value
2017-04-25T00:00:08.788Z,11.73
2017-04-25T00:01:09.414Z,11.69
2017-04-25T00:02:10.030Z,11.70
2017-04-25T00:03:10.673Z,11.77
2017-04-25T00:04:11.299Z,11.73
2017-04-25T00:05:11.891Z,11.77
2017-04-25T00:06:12.487Z,11.85
2017-04-25T00:07:13.101Z,11.75
2017-04-25T00:08:13.705Z,11.87
2017-04-25T00:09:14.302Z,11.83
2017-04-25T00:10:14.914Z,11.77
2017-04-25T00:11:15.524Z,11.77
2017-04-25T00:12:16.121Z,11.77
2017-04-25T00:13:16.723Z,11.70
2017-04-25T00:14:17.320Z,11.66
2017-04-25T00:15:17.929Z,11.76
2017-04-25T00:16:18.526Z,11.73
2017-04-25T00:17:19.134Z,11.80
2017-04-25T00:18:19.735Z,11.75
2017-04-25T00:19:20.344Z,11.76
2017-04-25T00:20:20.939Z,11.83
2017-04-25T00:21:21.548Z,11.70
2017-04-25T00:22:22.154Z,11.80
2017-04-25T00:23:22.761Z,11.85
2017-04-25T00:24:23.368Z,11.80
2017-04-25T00:25:23.977Z,11.85
2017-04-25T00:26:24.585Z,11.87
2017-04-25T00:27:25.190Z,11.73
2017-04-25T00:28:25.798Z,11.76
2017-04-25T00:29:26.410Z,11.88
2017-04-25T00:30:27.005Z,11.87
2017-04-25T00:31:27.612Z,11.85
2017-04-25T00:32:28.208Z,11.84
2017-04-25T00:33:28.814Z,11.84
2017-04-25T00:34:29.412Z,11.90
2017-04-25T00:35:30.021Z,11.81
2017-04-25T00:36:30.636Z,11.87
2017-04-25T00:37:31.238Z,11.87
2017-04-25T00:38:31.831Z,11.93
2017-04-25T00:39:32.427Z,11.77
2017-04-25T00:40:33.034Z,11.81
2017-04-25T00:41:33.632Z,11.66
2017-04-25T00:42:34.248Z,11.73
2017-04-25T00:43:34.858Z,11.50
2017-04-25T00:44:35.464Z,11.36
2017-04-25T00:45:36.071Z,11.30
2017-04-25T00:46:36.669Z,11.03
2017-04-25T00:47:37.271Z,11.00
2017-04-25T00:48:37.872Z,10.89
2017-04-25T00:49:38.468Z,10.76
2017-04-25T00:50:39.079Z,10.63
2017-04-25T00:51:39.687Z,10.56
2017-04-25T00:52:40.297Z,10.42
2017-04-25T00:53:40.899Z,10.35
2017-04-25T00:54:41.498Z,10.23
2017-04-25T00:55:42.110Z,10.23
2017-04-25T00:56:42.723Z,10.19
2017-04-25T00:57:43.327Z,10.20
2017-04-25T00:58:43.938Z,10.34
2017-04-25T00:59:44.528Z,10.32
2017-04-25T01:00:45.142Z,10.31
2017-04-25T01:01:45.753Z,10.16
2017-04-25T01:02:46.359Z,10.34
2017-04-25T01:03:46.972Z,10.31
2017-04-25T01:04:47.578Z,10.17
2017-04-25T01:05:48.174Z,10.22
2017-04-25T01:06:48.770Z,10.20
2017-04-25T01:07:49.367Z,10.06
2017-04-25T01:08:49.978Z,10.01
2017-04-25T01:09:50.591Z,10.04
2017-04-25T01:10:51.197Z,10.02
2017-04-25T01:11:51.810Z,10.02
2017-04-25T01:12:52.407Z,10.04
2017-04-25T01:13:53.017Z,10.02
2017-04-25T01:14:53.610Z,9.84
2017-04-25T01:15:54.218Z,9.84
2017-04-25T01:16:54.810Z,9.76
2017-04-25T01:17:55.406Z,9.61
2017-04-25T01:18:56.020Z,9.22
2017-04-25T01:19:56.672Z,9.00
2017-04-25T01:20:57.275Z,8.78
2017-04-25T01:21:57.880Z,8.56
2017-04-25T01:22:58.480Z,8.49
2017-04-25T01:23:59.079Z,8.31
2017-04-25T01:24:59.682Z,8.30
2017-04-25T01:26:00.289Z,8.27
2017-04-25T01:27:00.883Z,8.07
2017-04-25T01:28:01.485Z,8.07
2017-04-25T01:29:02.081Z,7.99
2017-04-25T01:30:02.740Z,8.09
2017-04-25T01:31:03.338Z,8.04
2017-04-25T01:32:03.945Z,7.99
2017-04-25T01:33:04.550Z,7.97
2017-04-25T01:34:05.143Z,7.80
2017-04-25T01:35:05.753Z,7.72
2017-04-25T01:36:06.343Z,7.77
2017-04-25T01:37:06.948Z,7.66
2017-04-25T01:38:07.552Z,7.61
2017-04-25T01:39:08.152Z,7.54
2017-04-25T01:40:08.749Z,7.58
2017-04-25T01:41:09.359Z,7.53
2017-04-25T01:42:09.959Z,7.53
2017-04-25T01:43:10.561Z,7.45
2017-04-25T01:44:11.157Z,7.47
2017-04-25T01:45:11.748Z,7.37
2017-04-25T01:46:12.338Z,7.42
2017-04-25T01:47:12.930Z,7.35
2017-04-25T01:48:13.531Z,7.27
2017-04-25T01:49:14.130Z,7.25
2017-04-25T01:50:14.720Z,7.33
2017-04-25T01:51:15.329Z,7.28
2017-04-25T01:52:15.938Z,7.28
2017-04-25T01:53:16.542Z,7.21
2017-04-25T01:54:17.134Z,7.10
2017-04-25T01:55:17.736Z,7.14
2017-04-25T01:56:18.335Z,7.10
2017-04-25T01:57:18.926Z,7.14
2017-04-25T01:58:19.520Z,7.09
2017-04-25T01:59:20.126Z,7.07
2017-04-25T02:00:20.719Z,7.03
2017-04-25T02:01:21.316Z,7.07
2017-04-25T02:02:21.933Z,7.06
2017-04-25T02:03:22.538Z,7.07
2017-04-25T02:04:23.143Z,6.99
2017-04-25T02:05:23.750Z,6.97
2017-04-25T02:06:24.357Z,7.04
2017-04-25T02:07:24.966Z,7.02
2017-04-25T02:08:25.576Z,6.97
2017-04-25T02:09:26.169Z,6.99
2017-04-25T02:10:26.774Z,7.02
2017-04-25T02:11:27.381Z,7.04
2017-04-25T02:12:27.969Z,6.97
2017-04-25T02:13:28.563Z,7.00
2017-04-25T02:14:29.160Z,7.02
2017-04-25T02:15:29.748Z,6.96
2017-04-25T02:16:30.343Z,6.97
2017-04-25T02:17:30.953Z,6.99
2017-04-25T02:18:31.557Z,6.99
2017-04-25T02:19:32.152Z,7.04
2017-04-25T02:20:32.744Z,6.91
2017-04-25T02:21:33.354Z,6.85
2017-04-25T02:22:33.949Z,6.92
2017-04-25T02:23:34.544Z,6.85
2017-04-25T02:24:35.139Z,6.97
2017-04-25T02:25:35.743Z,7.02
2017-04-25T02:26:36.346Z,7.00
2017-04-25T02:27:36.940Z,6.99
2017-04-25T02:28:37.537Z,7.00
2017-04-25T02:29:38.142Z,6.99
2017-04-25T02:30:38.787Z,7.00
2017-04-25T02:31:39.382Z,6.97
2017-04-25T02:32:39.986Z,7.02
2017-04-25T02:33:40.578Z,6.96
2017-04-25T02:34:41.180Z,6.88
2017-04-25T02:35:41.785Z,6.99
2017-04-25T02:36:42.391Z,6.96
2017-04-25T02:37:43.000Z,7.03
2017-04-25T02:38:43.606Z,7.02
2017-04-25T02:39:44.198Z,7.02
2017-04-25T02:40:44.787Z,7.02
2017-04-25T02:41:45.395Z,7.00
2017-04-25T02:42:45.999Z,7.04
2017-04-25T02:43:46.603Z,7.17
2017-04-25T02:44:47.196Z,7.17
2017-04-25T02:45:47.803Z,7.14
2017-04-25T02:46:48.395Z,7.12
2017-04-25T02:47:48.999Z,6.97
2017-04-25T02:48:49.593Z,7.03
2017-04-25T02:49:50.195Z,7.06
2017-04-25T02:50:50.789Z,7.00
2017-04-25T02:51:51.387Z,7.10
2017-04-25T02:52:51.979Z,7.07
2017-04-25T02:53:52.580Z,7.09
2017-04-25T02:54:53.169Z,7.02
2017-04-25T02:55:53.763Z,7.06
2017-04-25T02:56:54.370Z,7.07
2017-04-25T02:57:54.975Z,7.12
2017-04-25T02:58:55.583Z,7.09
2017-04-25T02:59:56.176Z,7.09
2017-04-25T03:00:56.780Z,7.07
2017-04-25T03:01:57.385Z,7.17
2017-04-25T03:02:57.978Z,7.18
2017-04-25T03:03:58.577Z,7.17
2017-04-25T03:04:59.167Z,7.14
2017-04-25T03:05:59.816Z,7.15
2017-04-25T03:07:00.417Z,7.10
2017-04-25T03:08:01.020Z,7.19
2017-04-25T03:09:01.615Z,7.10
2017-04-25T03:10:02.211Z,7.22
2017-04-25T03:11:02.804Z,7.17
2017-04-25T03:12:03.395Z,7.15
2017-04-25T03:13:03.998Z,7.15
2017-04-25T03:14:04.606Z,7.14
2017-04-25T03:15:05.213Z,7.10
2017-04-25T03:16:05.807Z,7.17
2017-04-25T03:17:06.405Z,7.10
2017-04-25T03:18:07.009Z,7.10
2017-04-25T03:19:07.616Z,7.14
2017-04-25T03:20:08.210Z,7.18
2017-04-25T03:21:08.814Z,7.10
2017-04-25T03:22:09.421Z,7.09
2017-04-25T03:23:10.026Z,7.07
2017-04-25T03:24:10.620Z,7.09
2017-04-25T03:25:11.206Z,7.04
2017-04-25T03:26:11.797Z,6.97
2017-04-25T03:27:12.400Z,7.03
2017-04-25T03:28:13.001Z,6.99
2017-04-25T03:29:13.602Z,6.97
2017-04-25T03:30:14.205Z,7.02
2017-04-25T03:31:14.799Z,7.02
2017-04-25T03:32:15.403Z,7.02
2017-04-25T03:33:16.005Z,7.02
2017-04-25T03:34:16.597Z,7.03
2017-04-25T03:35:17.200Z,7.00
2017-04-25T03:36:17.803Z,7.00
2017-04-25T03:37:18.411Z,7.02
2017-04-25T03:38:19.027Z,6.96
2017-04-25T03:39:19.631Z,6.85
2017-04-25T03:40:20.226Z,6.96
2017-04-25T03:41:20.816Z,6.96
2017-04-25T03:42:21.423Z,7.00
2017-04-25T03:43:22.011Z,6.97
2017-04-25T03:44:22.607Z,6.97
2017-04-25T03:45:23.211Z,7.03
2017-04-25T03:46:23.819Z,7.02
2017-04-25T03:47:24.429Z,7.04
2017-04-25T03:48:25.023Z,6.84
2017-04-25T03:49:25.611Z,7.02
2017-04-25T03:50:26.207Z,7.02
2017-04-25T03:51:26.812Z,6.94
2017-04-25T03:52:27.407Z,7.00
2017-04-25T03:53:28.009Z,6.97
2017-04-25T03:54:28.614Z,7.04
2017-04-25T03:55:29.211Z,7.00
2017-04-25T03:56:29.802Z,6.99
2017-04-25T03:57:30.407Z,6.96
2017-04-25T03:58:31.003Z,6.99
2017-04-25T03:59:31.598Z,6.91
2017-04-25T04:00:32.200Z,6.99
2017-04-25T04:01:32.804Z,6.88
2017-04-25T04:02:33.411Z,6.94
2017-04-25T04:03:34.017Z,6.89
2017-04-25T04:04:34.607Z,6.84
2017-04-25T04:05:35.214Z,6.84
2017-04-25T04:06:35.812Z,6.96
2017-04-25T04:07:36.405Z,7.00
2017-04-25T04:08:37.011Z,7.00
2017-04-25T04:09:37.613Z,7.02
2017-04-25T04:10:38.238Z,6.99
2017-04-25T04:11:38.824Z,7.00
2017-04-25T04:12:39.430Z,6.99
2017-04-25T04:13:40.027Z,6.97
2017-04-25T04:14:40.636Z,6.99
2017-04-25T04:15:41.244Z,7.00
2017-04-25T04:16:41.847Z,6.99
2017-04-25T04:17:42.438Z,6.91
2017-04-25T04:18:43.044Z,6.88
2017-04-25T04:19:43.647Z,6.85
2017-04-25T04:20:44.250Z,6.99
2017-04-25T04:21:44.848Z,7.00
2017-04-25T04:22:45.444Z,7.06
2017-04-25T04:23:46.049Z,7.02
2017-04-25T04:24:46.662Z,7.00
2017-04-25T04:25:47.260Z,7.03
2017-04-25T04:26:47.916Z,7.00
2017-04-25T04:27:48.511Z,7.02
2017-04-25T04:28:49.121Z,7.00
2017-04-25T04:29:49.730Z,7.03
2017-04-25T04:30:50.335Z,6.99
2017-04-25T04:31:50.934Z,7.03
2017-04-25T04:32:51.525Z,6.97
2017-04-25T04:33:52.120Z,7.04
2017-04-25T04:34:52.724Z,7.03
2017-04-25T04:35:53.329Z,7.09
2017-04-25T04:36:53.991Z,7.14
2017-04-25T04:37:54.601Z,7.10
2017-04-25T04:38:55.206Z,7.17
2017-04-25T04:39:55.817Z,7.22
2017-04-25T04:40:56.414Z,7.09
2017-04-25T04:41:57.016Z,7.17
2017-04-25T04:42:57.625Z,7.24
2017-04-25T04:43:58.218Z,7.21
2017-04-25T04:44:58.818Z,7.24
2017-04-25T04:45:59.431Z,7.29
2017-04-25T04:47:00.037Z,7.24
2017-04-25T04:48:00.641Z,7.25
2017-04-25T04:49:01.236Z,7.22
2017-04-25T04:50:01.848Z,7.24
2017-04-25T04:51:02.446Z,7.19
2017-04-25T04:52:03.054Z,7.25
2017-04-25T04:53:03.654Z,7.15
2017-04-25T04:54:04.265Z,7.14
2017-04-25T04:55:04.865Z,7.19
2017-04-25T04:56:05.468Z,7.15
2017-04-25T04:57:06.081Z,7.15
2017-04-25T04:58:06.696Z,7.12
2017-04-25T04:59:07.302Z,7.15
2017-04-25T05:00:07.908Z,7.19
2017-04-25T05:01:08.503Z,7.27
2017-04-25T05:02:09.111Z,7.22
2017-04-25T05:03:09.719Z,7.24
2017-04-25T05:04:10.316Z,7.24
2017-04-25T05:05:10.913Z,7.22
2017-04-25T05:06:11.526Z,7.27
2017-04-25T05:07:12.121Z,7.19
2017-04-25T05:08:12.751Z,7.22
2017-04-25T05:09:13.320Z,7.17
2017-04-25T05:10:13.921Z,7.25
2017-04-25T05:11:14.523Z,7.21
2017-04-25T05:12:15.181Z,7.18
2017-04-25T05:13:15.796Z,7.18
2017-04-25T05:14:16.404Z,7.21
2017-04-25T05:15:17.008Z,7.15
2017-04-25T05:16:17.606Z,7.21
2017-04-25T05:17:18.257Z,7.12
2017-04-25T05:18:18.863Z,7.21
2017-04-25T05:19:19.471Z,7.25
2017-04-25T05:20:20.080Z,7.15
2017-04-25T05:21:20.685Z,7.22
2017-04-25T05:22:21.293Z,7.15
2017-04-25T05:23:21.903Z,7.18
2017-04-25T05:24:22.512Z,7.25
2017-04-25T05:25:23.124Z,7.27
2017-04-25T05:26:23.735Z,7.24
2017-04-25T05:27:24.343Z,7.28
2017-04-25T05:28:24.974Z,7.21
2017-04-25T05:29:25.560Z,7.28
2017-04-25T05:30:26.166Z,7.25
2017-04-25T05:31:26.762Z,7.35
2017-04-25T05:32:27.363Z,7.40
2017-04-25T05:33:27.960Z,7.35
2017-04-25T05:34:28.559Z,7.33
2017-04-25T05:35:29.172Z,7.32
2017-04-25T05:36:29.782Z,7.25
2017-04-25T05:37:30.400Z,7.27
2017-04-25T05:38:30.988Z,7.19
2017-04-25T05:39:31.595Z,7.24
2017-04-25T05:40:32.188Z,7.28
2017-04-25T05:41:32.787Z,7.32
2017-04-25T05:42:33.400Z,7.25
2017-04-25T05:43:34.014Z,7.28
2017-04-25T05:44:34.626Z,7.25
2017-04-25T05:45:35.232Z,7.21
2017-04-25T05:46:35.839Z,7.29
2017-04-25T05:47:36.451Z,7.33
2017-04-25T05:48:37.051Z,7.33
2017-04-25T05:49:37.660Z,7.25
2017-04-25T05:50:38.259Z,7.28
2017-04-25T05:51:38.871Z,7.29
2017-04-25T05:52:39.481Z,7.28
2017-04-25T05:53:40.086Z,7.35
2017-04-25T05:54:40.680Z,7.28
2017-04-25T05:55:41.278Z,7.28
2017-04-25T05:56:41.878Z,7.27
2017-04-25T05:57:42.555Z,7.28
2017-04-25T05:58:43.180Z,7.33
2017-04-25T05:59:43.779Z,7.29
2017-04-25T06:00:44.389Z,7.29
2017-04-25T06:01:44.990Z,7.32
2017-04-25T06:02:45.598Z,7.27
2017-04-25T06:03:46.204Z,7.37
2017-04-25T06:04:46.815Z,7.33
2017-04-25T06:05:47.415Z,7.37
2017-04-25T06:06:48.101Z,7.35
2017-04-25T06:07:48.743Z,7.36
2017-04-25T06:08:49.351Z,7.35
2017-04-25T06:09:49.978Z,7.28
2017-04-25T06:10:50.610Z,7.32
2017-04-25T06:11:51.219Z,7.29
2017-04-25T06:12:51.820Z,7.40
2017-04-25T06:13:52.435Z,7.29
2017-04-25T06:14:53.044Z,7.35
2017-04-25T06:15:53.647Z,7.42
2017-04-25T06:16:54.247Z,7.33
2017-04-25T06:17:54.855Z,7.37
2017-04-25T06:18:55.463Z,7.33
2017-04-25T06:19:56.068Z,7.47
2017-04-25T06:20:56.679Z,7.51
2017-04-25T06:21:57.291Z,7.72
2017-04-25T06:22:57.902Z,7.95
2017-04-25T06:23:58.504Z,8.13
2017-04-25T06:24:59.113Z,8.53
2017-04-25T06:25:59.712Z,8.95
2017-04-25T06:27:00.327Z,9.10
2017-04-25T06:28:00.951Z,8.92
2017-04-25T06:29:01.571Z,8.66
2017-04-25T06:30:02.175Z,8.77
2017-04-25T06:31:02.778Z,8.76
2017-04-25T06:32:03.380Z,8.56
2017-04-25T06:33:03.982Z,8.53
2017-04-25T06:34:04.595Z,8.68
2017-04-25T06:35:05.205Z,9.03
2017-04-25T06:36:05.814Z,9.20
2017-04-25T06:37:06.433Z,9.19
2017-04-25T06:38:07.046Z,9.48
2017-04-25T06:39:07.653Z,9.50
2017-04-25T06:40:08.255Z,9.83
2017-04-25T06:41:08.868Z,10.16
2017-04-25T06:42:09.481Z,9.90
2017-04-25T06:43:10.137Z,10.05
2017-04-25T06:44:10.760Z,10.14
2017-04-25T06:45:11.364Z,10.04
2017-04-25T06:46:11.971Z,9.88
2017-04-25T06:47:12.591Z,9.80
2017-04-25T06:48:13.210Z,9.58
2017-04-25T06:49:13.827Z,9.53
2017-04-25T06:50:14.444Z,9.50
2017-04-25T06:51:15.056Z,9.45
2017-04-25T06:52:15.661Z,9.20
2017-04-25T06:53:16.280Z,9.28
2017-04-25T06:54:16.885Z,9.08
2017-04-25T06:55:17.499Z,8.89
2017-04-25T06:56:18.117Z,9.01
2017-04-25T06:57:18.728Z,9.22
2017-04-25T06:58:19.348Z,9.36
2017-04-25T06:59:19.948Z,9.29
2017-04-25T07:00:20.558Z,9.12
2017-04-25T07:01:21.201Z,9.33
2017-04-25T07:02:21.783Z,9.91
2017-04-25T07:03:22.398Z,10.37
2017-04-25T07:04:23.013Z,10.51
2017-04-25T07:05:23.663Z,10.45
2017-04-25T07:06:24.265Z,10.49
2017-04-25T07:07:24.886Z,10.49
2017-04-25T07:08:25.606Z,10.16
2017-04-25T07:09:26.213Z,10.04
2017-04-25T07:10:26.829Z,9.87
2017-04-25T07:11:27.439Z,9.86
2017-04-25T07:12:28.063Z,9.69
2017-04-25T07:13:28.681Z,9.83
2017-04-25T07:14:29.296Z,10.17
2017-04-25T07:15:29.922Z,10.08
2017-04-25T07:16:30.535Z,9.76
2017-04-25T07:17:31.149Z,9.62
2017-04-25T07:18:32.036Z,9.22
2017-04-25T07:19:32.637Z,9.14
2017-04-25T07:20:33.248Z,8.93
2017-04-25T07:21:33.856Z,8.89
2017-04-25T07:22:34.468Z,8.64
2017-04-25T07:23:35.070Z,8.43
2017-04-25T07:24:35.689Z,8.41
2017-04-25T07:25:36.302Z,8.41
2017-04-25T07:26:36.916Z,8.15
2017-04-25T07:27:37.528Z,8.19
2017-04-25T07:28:38.145Z,8.30
2017-04-25T07:29:38.759Z,8.25
2017-04-25T07:30:39.368Z,8.30
2017-04-25T07:31:39.971Z,8.27
2017-04-25T07:32:40.575Z,8.27
2017-04-25T07:33:41.239Z,8.92
2017-04-25T07:34:41.854Z,9.33
2017-04-25T07:35:42.474Z,9.77
2017-04-25T07:36:43.098Z,9.87
2017-04-25T07:37:43.920Z,10.19
2017-04-25T07:38:44.596Z,10.53
2017-04-25T07:39:45.215Z,10.60
2017-04-25T07:40:45.836Z,10.74
2017-04-25T07:41:46.444Z,10.23
2017-04-25T07:42:47.080Z,10.04
2017-04-25T07:43:47.712Z,9.95
2017-04-25T07:44:48.332Z,9.87
2017-04-25T07:45:48.957Z,9.86
2017-04-25T07:46:49.560Z,9.84
2017-04-25T07:47:50.178Z,9.96
2017-04-25T07:48:50.834Z,10.20
2017-04-25T07:49:51.452Z,9.94
2017-04-25T07:50:52.066Z,9.84
2017-04-25T07:51:52.687Z,9.63
2017-04-25T07:52:53.305Z,9.66
2017-04-25T07:53:53.957Z,9.44
2017-04-25T07:54:54.573Z,9.50
2017-04-25T07:55:55.189Z,9.98
2017-04-25T07:56:55.808Z,10.38
2017-04-25T07:57:56.426Z,10.85
2017-04-25T07:58:57.031Z,11.07
2017-04-25T07:59:57.651Z,11.40
2017-04-25T08:00:58.273Z,11.48
2017-04-25T08:01:58.887Z,11.44
2017-04-25T08:02:59.503Z,11.76
2017-04-25T08:04:00.116Z,11.77
2017-04-25T08:05:00.735Z,11.21
2017-04-25T08:06:01.340Z,10.87
2017-04-25T08:07:01.949Z,11.21
2017-04-25T08:08:02.572Z,11.96
2017-04-25T08:09:03.193Z,12.09
2017-04-25T08:10:03.814Z,12.39
2017-04-25T08:11:04.439Z,12.82
2017-04-25T08:12:05.063Z,12.49
2017-04-25T08:13:05.683Z,12.62
2017-04-25T08:14:06.352Z,12.82
2017-04-25T08:15:06.977Z,13.05
2017-04-25T08:16:07.600Z,13.22
2017-04-25T08:17:08.225Z,13.13
2017-04-25T08:18:08.850Z,13.41
2017-04-25T08:19:09.472Z,13.31
2017-04-25T08:20:10.082Z,13.71
2017-04-25T08:21:10.700Z,13.81
2017-04-25T08:22:11.316Z,13.75
2017-04-25T08:23:11.938Z,13.87
2017-04-25T08:24:12.562Z,14.18
2017-04-25T08:25:13.189Z,14.19
2017-04-25T08:26:13.820Z,14.07
2017-04-25T08:27:14.437Z,14.35
2017-04-25T08:28:15.065Z,14.57
2017-04-25T08:29:15.690Z,14.36
2017-04-25T08:30:16.315Z,14.17
2017-04-25T08:31:16.945Z,13.69
2017-04-25T08:32:17.587Z,13.89
2017-04-25T08:33:18.187Z,13.96
2017-04-25T08:34:18.813Z,14.12
2017-04-25T08:35:19.427Z,14.33
2017-04-25T08:36:20.053Z,14.25
2017-04-25T08:37:20.676Z,14.25
2017-04-25T08:38:21.292Z,14.48
2017-04-25T08:39:21.923Z,14.50
2017-04-25T08:40:22.547Z,14.89
2017-04-25T08:41:23.173Z,15.06
2017-04-25T08:42:23.795Z,15.13
2017-04-25T08:43:24.421Z,14.36
2017-04-25T08:44:25.047Z,14.10
2017-04-25T08:45:25.659Z,14.36
2017-04-25T08:46:26.292Z,14.57
2017-04-25T08:47:26.908Z,14.91
2017-04-25T08:48:27.538Z,14.91
2017-04-25T08:49:28.211Z,14.77
2017-04-25T08:50:28.869Z,14.40
2017-04-25T08:51:29.482Z,14.39
2017-04-25T08:52:30.103Z,14.12
2017-04-25T08:53:30.720Z,14.07
2017-04-25T08:54:31.343Z,13.75
2017-04-25T08:55:31.964Z,14.14
2017-04-25T08:56:32.609Z,13.87
2017-04-25T08:57:33.212Z,13.92
2017-04-25T08:58:33.842Z,14.18
2017-04-25T08:59:34.518Z,14.50
2017-04-25T09:00:35.134Z,14.47
2017-04-25T09:01:35.782Z,14.72
2017-04-25T09:02:36.393Z,14.54
2017-04-25T09:03:37.013Z,14.30
2017-04-25T09:04:37.633Z,13.84
2017-04-25T09:05:38.259Z,13.22
2017-04-25T09:06:38.884Z,13.23
2017-04-25T09:07:39.505Z,13.35
2017-04-25T09:08:40.115Z,13.36
2017-04-25T09:09:40.738Z,13.20
2017-04-25T09:10:41.344Z,13.41
2017-04-25T09:11:41.961Z,13.19
2017-04-25T09:12:42.573Z,13.00
2017-04-25T09:13:43.193Z,13.42
2017-04-25T09:14:43.806Z,13.15
2017-04-25T09:15:44.412Z,12.72
2017-04-25T09:16:45.029Z,13.18
2017-04-25T09:17:45.641Z,13.23
2017-04-25T09:18:46.265Z,13.36
2017-04-25T09:19:46.891Z,13.07
2017-04-25T09:20:47.503Z,12.90
2017-04-25T09:21:48.128Z,12.64
2017-04-25T09:22:48.751Z,12.47
2017-04-25T09:23:49.370Z,12.34
2017-04-25T09:24:50.025Z,12.44
2017-04-25T09:25:50.641Z,12.49
2017-04-25T09:26:51.260Z,12.42
2017-04-25T09:27:51.869Z,12.34
2017-04-25T09:28:52.494Z,12.28
2017-04-25T09:29:53.106Z,11.91
2017-04-25T09:30:53.724Z,11.62
2017-04-25T09:31:54.338Z,11.37
2017-04-25T09:32:54.954Z,11.62
2017-04-25T09:33:55.563Z,11.91
2017-04-25T09:34:56.178Z,11.91
2017-04-25T09:35:56.799Z,12.07
2017-04-25T09:36:57.418Z,12.40
2017-04-25T09:37:58.041Z,12.55
2017-04-25T09:38:58.668Z,12.87
2017-04-25T09:39:59.327Z,12.62
2017-04-25T09:40:59.928Z,12.52
2017-04-25T09:42:00.748Z,12.44
2017-04-25T09:43:01.359Z,12.65
2017-04-25T09:44:01.968Z,12.98
2017-04-25T09:45:02.593Z,13.38
2017-04-25T09:46:03.210Z,13.46
2017-04-25T09:47:03.830Z,13.86
2017-04-25T09:48:04.446Z,13.78
2017-04-25T09:49:05.061Z,13.45
2017-04-25T09:50:05.720Z,13.25
2017-04-25T09:51:06.322Z,12.95
2017-04-25T09:52:06.939Z,13.19
2017-04-25T09:53:07.585Z,13.33
2017-04-25T09:54:08.203Z,13.66
2017-04-25T09:55:08.826Z,13.64
2017-04-25T09:56:09.450Z,13.53
2017-04-25T09:57:10.078Z,13.36
2017-04-25T09:58:10.706Z,13.46
2017-04-25T09:59:11.329Z,13.71
2017-04-25T10:00:11.936Z,13.71
2017-04-25T10:01:12.547Z,13.49
2017-04-25T10:02:13.160Z,13.52
2017-04-25T10:03:13.786Z,13.36
2017-04-25T10:04:14.406Z,13.63
2017-04-25T10:05:15.177Z,13.63
2017-04-25T10:06:15.799Z,13.87
2017-04-25T10:07:16.409Z,14.17
2017-04-25T10:08:17.030Z,14.47
2017-04-25T10:09:17.652Z,14.63
2017-04-25T10:10:18.281Z,14.60
2017-04-25T10:11:18.907Z,14.72
2017-04-25T10:12:19.518Z,14.92
2017-04-25T10:13:20.144Z,14.75
2017-04-25T10:14:20.768Z,14.89
2017-04-25T10:15:21.391Z,14.96
2017-04-25T10:16:22.008Z,14.63
2017-04-25T10:17:22.620Z,14.19
2017-04-25T10:18:23.277Z,14.17
2017-04-25T10:19:23.919Z,14.68
2017-04-25T10:20:24.592Z,14.96
2017-04-25T10:21:25.203Z,14.88
2017-04-25T10:22:25.813Z,14.91
2017-04-25T10:23:26.433Z,15.07
2017-04-25T10:24:27.058Z,15.29
2017-04-25T10:25:27.914Z,15.34
2017-04-25T10:26:28.550Z,15.04
2017-04-25T10:27:29.398Z,14.95
2017-04-25T10:28:30.023Z,14.63
2017-04-25T10:29:30.646Z,14.32
2017-04-25T10:30:31.264Z,14.15
2017-04-25T10:31:31.888Z,13.84
2017-04-25T10:32:32.508Z,14.11
2017-04-25T10:33:33.128Z,13.94
2017-04-25T10:34:33.749Z,13.78
2017-04-25T10:35:34.373Z,13.72
2017-04-25T10:36:34.992Z,13.50
2017-04-25T10:37:35.613Z,13.39
2017-04-25T10:38:36.221Z,13.41
2017-04-25T10:39:36.830Z,13.35
2017-04-25T10:40:37.504Z,13.46
2017-04-25T10:41:38.118Z,13.75
2017-04-25T10:42:38.725Z,14.10
2017-04-25T10:43:39.335Z,14.17
2017-04-25T10:44:39.956Z,14.25
2017-04-25T10:45:40.567Z,14.63
2017-04-25T10:46:41.173Z,14.82
2017-04-25T10:47:41.783Z,15.01
2017-04-25T10:48:42.403Z,15.00
2017-04-25T10:49:43.015Z,14.89
2017-04-25T10:50:43.643Z,14.65
2017-04-25T10:51:44.261Z,14.62
2017-04-25T10:52:44.888Z,14.35
2017-04-25T10:53:45.502Z,14.14
2017-04-25T10:54:46.111Z,13.79
2017-04-25T10:55:46.725Z,13.86
2017-04-25T10:56:47.348Z,13.86
2017-04-25T10:57:47.960Z,13.74
2017-04-25T10:58:48.587Z,13.69
2017-04-25T10:59:49.211Z,13.61
2017-04-25T11:00:49.840Z,13.57
2017-04-25T11:01:50.446Z,13.64
2017-04-25T11:02:51.067Z,13.64
2017-04-25T11:03:51.812Z,13.79
2017-04-25T11:04:52.414Z,13.97
2017-04-25T11:05:53.088Z,14.12
2017-04-25T11:06:53.710Z,14.00
2017-04-25T11:07:54.318Z,14.11
2017-04-25T11:08:54.927Z,13.93
2017-04-25T11:09:55.540Z,13.72
2017-04-25T11:10:56.164Z,13.50
2017-04-25T11:11:56.764Z,13.30
2017-04-25T11:12:57.381Z,13.22
2017-04-25T11:13:58.002Z,13.01
2017-04-25T11:14:58.622Z,12.97
2017-04-25T11:15:59.290Z,12.94
2017-04-25T11:16:59.911Z,12.60
2017-04-25T11:18:00.533Z,12.39
2017-04-25T11:19:01.138Z,12.31
2017-04-25T11:20:01.764Z,12.09
2017-04-25T11:21:02.382Z,12.04
2017-04-25T11:22:03.002Z,11.73
2017-04-25T11:23:03.820Z,11.58
2017-04-25T11:24:04.646Z,11.40
2017-04-25T11:25:05.270Z,11.54
2017-04-25T11:26:05.888Z,11.65
2017-04-25T11:27:06.497Z,11.51
2017-04-25T11:28:07.101Z,11.34
2017-04-25T11:29:07.723Z,11.27
2017-04-25T11:30:08.462Z,11.33
2017-04-25T11:31:09.120Z,11.29
2017-04-25T11:32:09.744Z,11.32
2017-04-25T11:33:10.363Z,11.27
2017-04-25T11:34:10.984Z,11.15
2017-04-25T11:35:11.603Z,11.21
2017-04-25T11:36:12.220Z,10.87
2017-04-25T11:37:12.841Z,10.87
2017-04-25T11:38:13.458Z,10.82
2017-04-25T11:39:14.088Z,11.03
2017-04-25T11:40:14.710Z,11.51
2017-04-25T11:41:15.332Z,12.11
2017-04-25T11:42:15.955Z,12.69
2017-04-25T11:43:16.563Z,13.01
2017-04-25T11:44:17.191Z,13.18
2017-04-25T11:45:17.804Z,13.16
2017-04-25T11:46:18.416Z,13.45
2017-04-25T11:47:19.044Z,13.72
2017-04-25T11:48:19.662Z,14.17
2017-04-25T11:49:20.289Z,14.35
2017-04-25T11:50:21.111Z,14.39
2017-04-25T11:51:21.733Z,14.60
2017-04-25T11:52:22.363Z,14.57
2017-04-25T11:53:22.986Z,14.88
2017-04-25T11:54:23.610Z,15.13
2017-04-25T11:55:24.431Z,14.99
2017-04-25T11:56:25.090Z,14.91
2017-04-25T11:57:25.706Z,14.78
2017-04-25T11:58:26.312Z,14.51
2017-04-25T11:59:26.931Z,14.14
2017-04-25T12:00:27.552Z,14.07
2017-04-25T12:01:28.216Z,14.14
2017-04-25T12:02:28.841Z,14.73
2017-04-25T12:03:29.467Z,14.47
2017-04-25T12:04:30.090Z,14.30
2017-04-25T12:05:30.701Z,14.17
2017-04-25T12:06:31.373Z,13.96
2017-04-25T12:07:31.985Z,14.18
2017-04-25T12:08:32.606Z,14.12
2017-04-25T12:09:33.228Z,14.10
2017-04-25T12:10:33.851Z,14.66
2017-04-25T12:11:34.480Z,15.07
2017-04-25T12:12:35.109Z,15.26
2017-04-25T12:13:35.730Z,15.32
2017-04-25T12:14:36.345Z,15.06
2017-04-25T12:15:36.957Z,14.36
2017-04-25T12:16:37.577Z,13.92
2017-04-25T12:17:38.201Z,13.30
2017-04-25T12:18:38.816Z,12.98
2017-04-25T12:19:39.433Z,12.86
2017-04-25T12:20:40.042Z,12.80
2017-04-25T12:21:40.646Z,12.71
2017-04-25T12:22:41.269Z,12.61
2017-04-25T12:23:41.875Z,12.37
2017-04-25T12:24:42.489Z,12.29
2017-04-25T12:25:43.099Z,12.13
2017-04-25T12:26:43.717Z,12.11
2017-04-25T12:27:44.579Z,12.19
2017-04-25T12:28:45.200Z,12.28
2017-04-25T12:29:45.822Z,11.95
2017-04-25T12:30:46.444Z,11.87
2017-04-25T12:31:47.082Z,11.62
2017-04-25T12:32:47.688Z,11.54
2017-04-25T12:33:48.313Z,11.63
2017-04-25T12:34:48.929Z,11.50
2017-04-25T12:35:49.538Z,11.47
2017-04-25T12:36:50.223Z,11.83
2017-04-25T12:37:50.834Z,11.72
2017-04-25T12:38:51.457Z,11.51
2017-04-25T12:39:52.085Z,11.52
2017-04-25T12:40:52.703Z,11.27
2017-04-25T12:41:53.313Z,11.36
2017-04-25T12:42:53.918Z,11.32
2017-04-25T12:43:54.535Z,11.14
2017-04-25T12:44:55.142Z,11.21
2017-04-25T12:45:55.768Z,11.18
2017-04-25T12:46:56.383Z,11.03
2017-04-25T12:47:57.007Z,11.21
2017-04-25T12:48:57.628Z,11.19
2017-04-25T12:49:58.250Z,11.19
2017-04-25T12:50:58.868Z,11.07
2017-04-25T12:51:59.488Z,10.99
2017-04-25T12:53:00.095Z,11.09
2017-04-25T12:54:00.716Z,11.36
2017-04-25T12:55:01.318Z,11.55
2017-04-25T12:56:01.941Z,11.98
2017-04-25T12:57:02.564Z,12.22
2017-04-25T12:58:03.187Z,12.71
2017-04-25T12:59:03.808Z,13.04
2017-04-25T13:00:04.427Z,13.36
2017-04-25T13:01:05.044Z,13.72
2017-04-25T13:02:05.705Z,13.89
2017-04-25T13:03:06.325Z,13.90
2017-04-25T13:04:06.943Z,13.78
2017-04-25T13:05:07.596Z,13.69
2017-04-25T13:06:08.217Z,13.63
2017-04-25T13:07:08.837Z,13.39
2017-04-25T13:08:09.451Z,13.02
2017-04-25T13:09:10.063Z,13.00
2017-04-25T13:10:10.681Z,13.16
2017-04-25T13:11:11.299Z,13.19
2017-04-25T13:12:11.911Z,13.01